Time;durP1;ratioP1;P1;durP2;ratioP2;P2;SDS_P1;SDS_P2;PMS_P1;PMS_P2;Temp;Humidity;BMP_temperature;BMP_pressure;BME280_temperature;BME280_humidity;BME280_pressure;Samples;Min_cycle;Max_cycle;Signal;HPM_P1;HPM_P2
2022/11/06 00:00:46;;;;;;;8.00;5.17;;;;;;;2.11;100.00;101239.59;5033390;28;20219;-73
2022/11/06 00:03:13;;;;;;;9.67;5.97;;;;;;;2.10;100.00;101235.31;5048579;28;20198;-74
2022/11/06 00:08:30;;;;;;;10.23;5.60;;;;;;;2.21;100.00;101238.94;5027657;28;20306;-73
2022/11/06 00:10:57;;;;;;;7.70;5.57;;;;;;;2.30;100.00;101228.78;5041035;28;20552;-73
2022/11/06 00:13:24;;;;;;;9.47;5.73;;;;;;;2.26;100.00;101229.59;5027003;28;20227;-73
2022/11/06 00:15:52;;;;;;;9.03;5.33;;;;;;;2.24;100.00;101234.69;5043856;28;20282;-73
2022/11/06 00:18:19;;;;;;;13.17;5.87;;;;;;;2.26;100.00;101235.59;5045250;28;20210;-73
2022/11/06 00:20:45;;;;;;;11.17;6.03;;;;;;;2.37;100.00;101234.91;5047397;28;20229;-73
2022/11/06 00:23:12;;;;;;;10.67;5.87;;;;;;;2.18;100.00;101236.28;5044241;28;20200;-73
2022/11/06 00:25:41;;;;;;;12.50;5.97;;;;;;;2.20;100.00;101237.19;5044455;28;20192;-73
2022/11/06 00:28:07;;;;;;;9.00;5.77;;;;;;;2.28;100.00;101239.06;5033266;28;20696;-74
2022/11/06 00:30:33;;;;;;;11.97;6.17;;;;;;;2.30;100.00;101233.09;5030886;28;20599;-73
2022/11/06 00:33:01;;;;;;;8.23;5.00;;;;;;;2.03;100.00;101226.59;5047142;28;20211;-73
2022/11/06 00:35:28;;;;;;;11.93;5.80;;;;;;;2.02;100.00;101233.47;5046302;28;20206;-73
2022/11/06 00:37:54;;;;;;;12.10;6.00;;;;;;;1.93;100.00;101232.41;5030487;28;20202;-73
2022/11/06 00:40:21;;;;;;;8.67;5.63;;;;;;;2.06;100.00;101232.66;5046576;28;20219;-73
2022/11/06 00:42:47;;;;;;;8.67;5.70;;;;;;;2.07;100.00;101231.81;5041827;28;20194;-73
2022/11/06 00:45:14;;;;;;;13.57;5.80;;;;;;;1.97;100.00;101223.91;5045109;28;20623;-74
2022/11/06 00:47:40;;;;;;;7.57;5.50;;;;;;;2.03;100.00;101218.88;5043482;28;20203;-73
2022/11/06 00:50:10;;;;;;;15.10;6.10;;;;;;;2.19;100.00;101225.19;5029346;28;20749;-73
2022/11/06 00:52:36;;;;;;;11.70;5.83;;;;;;;2.06;100.00;101216.38;5041252;28;20246;-73
2022/11/06 00:55:03;;;;;;;10.73;6.00;;;;;;;2.04;100.00;101224.06;5028492;28;20706;-73
2022/11/06 00:57:29;;;;;;;9.37;5.63;;;;;;;1.95;100.00;101226.44;5048704;28;20222;-73
2022/11/06 00:59:55;;;;;;;10.67;5.53;;;;;;;2.07;100.00;101224.09;5047647;28;20691;-73
2022/11/06 01:02:22;;;;;;;10.03;5.30;;;;;;;2.01;100.00;101216.28;5042705;28;20199;-73
2022/11/06 01:04:49;;;;;;;9.17;5.53;;;;;;;1.89;100.00;101213.47;5043178;28;20211;-73
2022/11/06 01:07:17;;;;;;;8.83;5.37;;;;;;;1.69;100.00;101213.97;5043574;28;20195;-74
2022/11/06 01:09:44;;;;;;;9.10;5.63;;;;;;;1.62;100.00;101212.13;5042888;28;20191;-73
2022/11/06 01:12:10;;;;;;;7.47;5.50;;;;;;;1.69;100.00;101218.25;5027695;28;20203;-73
2022/11/06 01:14:39;;;;;;;12.70;5.83;;;;;;;1.58;100.00;101210.31;5045089;28;20201;-73
2022/11/06 01:17:05;;;;;;;9.37;5.60;;;;;;;1.59;100.00;101206.06;5047303;28;20199;-73
2022/11/06 01:19:32;;;;;;;8.10;5.53;;;;;;;1.50;100.00;101212.72;5042230;28;20223;-73
2022/11/06 01:21:58;;;;;;;8.60;5.13;;;;;;;1.46;100.00;101212.63;5030405;28;20633;-73
2022/11/06 01:24:28;;;;;;;11.00;6.03;;;;;;;1.66;100.00;101211.34;5045653;28;20253;-73
2022/11/06 01:26:55;;;;;;;15.50;6.70;;;;;;;1.80;100.00;101211.59;5044316;28;20191;-73
2022/11/06 01:29:21;;;;;;;11.67;5.53;;;;;;;1.82;100.00;101215.06;5047332;28;20226;-74
2022/11/06 01:31:49;;;;;;;8.93;5.70;;;;;;;1.81;100.00;101215.03;5043150;28;20722;-73
2022/11/06 01:34:17;;;;;;;8.97;5.57;;;;;;;1.97;100.00;101209.34;5046842;28;20215;-73
2022/11/06 01:36:43;;;;;;;10.27;5.27;;;;;;;1.92;100.00;101207.50;5045790;28;20589;-73
2022/11/06 01:39:13;;;;;;;10.73;5.90;;;;;;;1.77;100.00;101205.53;5047254;28;20282;-73
2022/11/06 01:41:44;;;;;;;8.87;5.53;;;;;;;1.75;100.00;101205.50;5045973;28;20223;-73
2022/11/06 01:44:48;;;;;;;10.90;5.60;;;;;;;1.85;100.00;101207.41;5046172;28;20205;-73
2022/11/06 01:47:22;;;;;;;7.67;5.73;;;;;;;1.72;100.00;101199.44;5046881;28;20199;-73
2022/11/06 01:49:51;;;;;;;11.40;6.20;;;;;;;1.67;100.00;101195.09;5045592;28;20662;-73
2022/11/06 01:52:19;;;;;;;13.93;5.50;;;;;;;1.76;100.00;101196.06;5050805;28;20195;-73
2022/11/06 01:54:50;;;;;;;9.27;5.63;;;;;;;1.79;100.00;101198.72;5051134;28;20199;-74
2022/11/06 01:57:18;;;;;;;10.30;5.60;;;;;;;1.75;100.00;101194.38;5050174;28;20197;-74
2022/11/06 01:59:45;;;;;;;14.40;6.20;;;;;;;1.56;100.00;101199.13;5049595;28;20209;-74
2022/11/06 02:02:14;;;;;;;9.80;5.30;;;;;;;1.72;100.00;101192.56;5047005;28;20208;-73
2022/11/06 02:04:43;;;;;;;22.17;6.03;;;;;;;1.69;100.00;101203.69;5050693;28;20195;-74
2022/11/06 02:07:10;;;;;;;10.23;5.73;;;;;;;1.74;100.00;101202.91;5032376;28;20202;-74
2022/11/06 02:09:37;;;;;;;10.37;5.00;;;;;;;1.67;100.00;101192.50;5048975;28;20204;-74
2022/11/06 02:12:11;;;;;;;10.83;5.53;;;;;;;1.72;100.00;101186.59;5049142;28;20187;-74
2022/11/06 02:14:48;;;;;;;8.07;5.37;;;;;;;1.69;100.00;101193.41;5046673;28;20219;-74
2022/11/06 02:17:34;;;;;;;11.63;5.47;;;;;;;1.79;100.00;101189.28;5047129;28;20209;-74
2022/11/06 02:20:06;;;;;;;6.90;4.87;;;;;;;1.62;100.00;101191.56;5046830;28;20223;-74
2022/11/06 02:22:48;;;;;;;11.57;5.57;;;;;;;1.63;100.00;101182.97;5044031;28;20249;-74
2022/11/06 02:25:22;;;;;;;10.90;5.23;;;;;;;1.56;100.00;101183.72;5047011;28;20227;-74
2022/11/06 02:27:56;;;;;;;7.87;5.03;;;;;;;1.62;100.00;101185.53;5048736;28;20202;-74
2022/11/06 02:30:27;;;;;;;6.97;4.37;;;;;;;1.69;100.00;101188.25;5047803;28;20301;-74
2022/11/06 02:32:57;;;;;;;7.77;5.00;;;;;;;1.66;100.00;101190.75;5048633;28;20745;-74
2022/11/06 02:35:30;;;;;;;9.97;5.00;;;;;;;1.79;100.00;101184.13;5046172;28;20195;-74
2022/11/06 02:38:01;;;;;;;11.00;5.13;;;;;;;1.70;100.00;101184.84;5045362;28;20205;-74
2022/11/06 02:40:32;;;;;;;10.37;5.27;;;;;;;1.85;100.00;101188.56;5030307;28;20650;-74
2022/11/06 02:43:02;;;;;;;8.13;4.57;;;;;;;1.81;100.00;101176.47;5045996;28;20187;-74
2022/11/06 02:45:30;;;;;;;7.97;4.57;;;;;;;1.80;100.00;101172.19;5048695;28;20195;-74
2022/11/06 02:47:59;;;;;;;11.87;4.83;;;;;;;1.76;100.00;101176.41;5032111;28;20725;-74
2022/11/06 02:50:31;;;;;;;11.13;5.07;;;;;;;1.83;100.00;101167.06;5048629;28;20234;-74
2022/11/06 02:53:04;;;;;;;8.23;4.27;;;;;;;1.81;100.00;101176.47;5048099;28;20415;-74
2022/11/06 02:55:36;;;;;;;13.13;5.43;;;;;;;1.79;100.00;101167.84;5043501;28;20201;-74
2022/11/06 02:58:09;;;;;;;9.70;5.07;;;;;;;1.73;100.00;101173.75;5049509;28;20203;-74
2022/11/06 03:00:38;;;;;;;8.50;5.47;;;;;;;1.78;100.00;101167.00;5043688;28;20229;-74
2022/11/06 03:03:08;;;;;;;12.77;5.07;;;;;;;1.83;100.00;101169.63;5024938;28;20203;-74
2022/11/06 03:05:40;;;;;;;13.27;4.70;;;;;;;1.81;100.00;101166.19;5047550;28;20207;-74
2022/11/06 03:08:13;;;;;;;9.60;4.53;;;;;;;1.80;100.00;101170.47;5046505;28;20195;-74
2022/11/06 03:10:46;;;;;;;7.07;4.73;;;;;;;1.81;100.00;101166.19;5025596;28;20224;-74
2022/11/06 03:13:18;;;;;;;12.27;5.23;;;;;;;1.86;100.00;101173.13;5038456;28;20207;-74
2022/11/06 03:15:55;;;;;;;11.77;5.13;;;;;;;1.87;100.00;101171.44;5045199;28;20199;-74
2022/11/06 03:18:28;;;;;;;10.67;5.50;;;;;;;1.86;100.00;101167.13;5048150;28;20199;-74
2022/11/06 03:21:00;;;;;;;8.10;4.80;;;;;;;1.83;100.00;101172.22;5043652;28;20234;-74
2022/11/06 03:23:35;;;;;;;7.07;4.80;;;;;;;1.82;100.00;101171.34;5047369;28;20191;-74
2022/11/06 03:26:10;;;;;;;7.57;4.73;;;;;;;1.84;100.00;101167.09;5048049;28;20206;-74
2022/11/06 03:28:44;;;;;;;8.53;4.73;;;;;;;1.82;100.00;101168.78;5043577;28;20671;-74
2022/11/06 03:31:14;;;;;;;8.47;5.53;;;;;;;1.86;100.00;101165.41;5045450;28;20326;-74
2022/11/06 03:33:46;;;;;;;12.40;5.60;;;;;;;1.91;100.00;101167.22;5046036;28;20214;-74
2022/11/06 03:36:18;;;;;;;10.03;4.63;;;;;;;1.93;100.00;101160.41;5042294;28;20187;-74
2022/11/06 03:38:49;;;;;;;8.33;4.50;;;;;;;1.99;100.00;101160.53;5046737;28;20199;-74
2022/11/06 03:41:22;;;;;;;8.30;5.00;;;;;;;2.05;100.00;101158.03;5047197;28;20659;-74
2022/11/06 03:43:54;;;;;;;14.00;5.00;;;;;;;2.03;100.00;101155.44;5045889;28;20187;-75
2022/11/06 03:46:24;;;;;;;6.77;4.70;;;;;;;2.03;100.00;101168.28;5046949;28;20547;-74
2022/11/06 03:48:53;;;;;;;12.30;5.17;;;;;;;2.08;100.00;101168.38;5046065;28;20290;-74
2022/11/06 03:51:25;;;;;;;10.90;5.13;;;;;;;2.14;100.00;101163.34;5046858;28;20434;-74
2022/11/06 03:53:55;;;;;;;12.63;5.53;;;;;;;2.18;100.00;101165.13;5047170;28;20548;-74
2022/11/06 03:56:32;;;;;;;10.00;4.53;;;;;;;2.21;100.00;101165.16;5048279;28;20210;-74
2022/11/06 03:59:03;;;;;;;10.60;5.43;;;;;;;2.23;100.00;101165.19;5046085;28;20230;-74
2022/11/06 04:01:35;;;;;;;11.17;5.23;;;;;;;2.15;100.00;101166.78;5047526;28;20218;-74
2022/11/06 04:04:06;;;;;;;10.10;4.90;;;;;;;2.05;100.00;101160.63;5047287;28;20556;-74
2022/11/06 04:06:36;;;;;;;17.30;5.43;;;;;;;2.08;100.00;101165.81;5042042;28;20198;-74
2022/11/06 04:14:47;;;;;;;10.17;4.87;;;;;;;1.99;100.00;101163.94;5044206;28;20242;-74
2022/11/06 04:17:15;;;;;;;7.73;5.10;;;;;;;2.00;100.00;101155.38;5042598;28;20207;-74
2022/11/06 04:19:49;;;;;;;11.07;4.63;;;;;;;2.04;100.00;101159.75;5043792;28;20191;-74
2022/11/06 04:22:31;;;;;;;7.53;4.70;;;;;;;2.03;100.00;101150.28;5040938;28;20562;-75
2022/11/06 04:28:06;;;;;;;11.80;4.47;;;;;;;2.11;100.00;101152.13;5042833;28;20195;-73
2022/11/06 04:30:39;;;;;;;9.37;5.40;;;;;;;2.11;100.00;101153.03;5042664;28;20253;-73
2022/11/06 04:33:11;;;;;;;11.93;5.00;;;;;;;2.04;100.00;101146.00;5045358;28;20196;-74
2022/11/06 04:35:48;;;;;;;11.47;5.20;;;;;;;2.03;100.00;101147.72;5047624;28;20200;-74
2022/11/06 04:38:34;;;;;;;7.97;5.03;;;;;;;2.00;100.00;101147.66;5044169;28;20582;-74
2022/11/06 04:41:12;;;;;;;11.80;5.40;;;;;;;2.06;100.00;101152.94;5047253;28;20306;-73
2022/11/06 04:43:44;;;;;;;16.87;5.40;;;;;;;2.07;100.00;101146.91;5042213;28;20598;-74
2022/11/06 04:46:27;;;;;;;9.77;5.20;;;;;;;2.23;100.00;101147.19;5042841;28;20378;-74
2022/11/06 04:48:54;;;;;;;11.53;4.63;;;;;;;2.10;100.00;101143.56;5026564;28;20195;-73
2022/11/06 04:51:27;;;;;;;10.40;5.10;;;;;;;1.98;100.00;101144.19;5046870;28;20223;-74
2022/11/06 04:53:54;;;;;;;6.37;4.63;;;;;;;2.00;100.00;101139.09;5046153;28;20215;-73
2022/11/06 04:56:27;;;;;;;7.13;4.60;;;;;;;2.00;100.00;101132.22;5046884;28;20222;-73
2022/11/06 04:58:53;;;;;;;9.03;4.80;;;;;;;2.01;100.00;101128.81;5046773;28;20234;-73
2022/11/06 05:01:21;;;;;;;10.50;5.00;;;;;;;1.93;100.00;101129.53;5046606;28;20234;-75
2022/11/06 05:03:47;;;;;;;8.13;5.40;;;;;;;1.93;100.00;101121.81;5046388;28;20187;-74
2022/11/06 05:06:14;;;;;;;6.83;4.77;;;;;;;1.94;100.00;101118.44;5046934;28;20395;-74
2022/11/06 05:08:40;;;;;;;8.50;5.00;;;;;;;1.94;100.00;101127.00;5047148;28;20230;-75
2022/11/06 05:11:07;;;;;;;10.17;5.00;;;;;;;1.88;100.00;101125.19;5031840;28;20710;-74
2022/11/06 05:13:34;;;;;;;16.23;5.23;;;;;;;1.94;100.00;101121.00;5028064;28;20596;-73
2022/11/06 05:16:01;;;;;;;7.60;4.80;;;;;;;1.96;100.00;101129.59;5047234;28;20211;-74
2022/11/06 05:18:30;;;;;;;10.37;4.90;;;;;;;1.89;100.00;101118.34;5045911;28;20204;-73
2022/11/06 05:23:40;;;;;;;8.10;4.87;;;;;;;1.88;100.00;101119.16;5041198;28;20214;-73
2022/11/06 05:26:07;;;;;;;9.30;5.27;;;;;;;1.84;100.00;101114.81;5046720;28;20198;-74
2022/11/06 05:28:33;;;;;;;8.03;5.00;;;;;;;1.94;100.00;101121.84;5024304;28;20191;-74
2022/11/06 05:31:00;;;;;;;9.33;5.10;;;;;;;1.93;100.00;101120.09;5044995;28;20215;-75
2022/11/06 05:33:28;;;;;;;10.57;4.43;;;;;;;1.78;100.00;101125.88;5044152;28;20865;-74
2022/11/06 05:35:56;;;;;;;8.27;4.77;;;;;;;1.85;100.00;101125.13;5046908;28;20195;-74
2022/11/06 05:38:22;;;;;;;6.60;4.23;;;;;;;1.69;100.00;101124.00;5045980;28;20548;-76
2022/11/06 05:40:48;;;;;;;8.67;5.37;;;;;;;1.73;100.00;101113.78;5046511;28;20211;-73
2022/11/06 05:43:15;;;;;;;9.73;4.30;;;;;;;1.66;100.00;101112.78;5046717;28;20202;-74
2022/11/06 05:45:41;;;;;;;8.13;4.80;;;;;;;1.70;100.00;101119.72;5024268;28;20207;-73
2022/11/06 05:48:07;;;;;;;14.37;4.93;;;;;;;1.70;100.00;101118.00;5041200;28;20211;-73
2022/11/06 05:50:34;;;;;;;8.87;4.23;;;;;;;1.71;100.00;101111.16;5046735;28;20723;-74
2022/11/06 05:53:07;;;;;;;6.57;4.27;;;;;;;1.65;100.00;101116.19;5047181;28;20199;-74
2022/11/06 05:55:33;;;;;;;11.47;5.13;;;;;;;1.67;100.00;101109.34;5046503;28;20223;-74
2022/11/06 05:57:59;;;;;;;7.03;4.63;;;;;;;1.72;100.00;101117.16;5046305;28;20195;-73
2022/11/06 06:00:26;;;;;;;9.60;5.07;;;;;;;1.77;100.00;101115.53;5044359;28;20325;-74
2022/11/06 06:02:53;;;;;;;11.40;5.53;;;;;;;1.74;100.00;101120.63;5046060;28;20298;-74
2022/11/06 06:05:19;;;;;;;11.57;5.07;;;;;;;1.86;100.00;101115.69;5047047;28;20199;-73
2022/11/06 06:07:46;;;;;;;10.73;5.57;;;;;;;1.80;100.00;101116.47;5046752;28;20207;-73
2022/11/06 06:10:13;;;;;;;8.37;5.23;;;;;;;1.74;100.00;101118.06;5045989;28;20225;-73
2022/11/06 06:12:40;;;;;;;11.73;5.50;;;;;;;1.67;100.00;101117.97;5046625;28;20285;-73
2022/11/06 06:15:07;;;;;;;8.27;5.03;;;;;;;1.74;100.00;101120.63;5045960;28;20218;-74
2022/11/06 06:17:33;;;;;;;14.70;5.60;;;;;;;1.79;100.00;101129.28;5026668;28;20290;-74
2022/11/06 06:20:00;;;;;;;9.13;5.03;;;;;;;1.68;100.00;101127.38;5045381;28;20298;-73
2022/11/06 06:22:26;;;;;;;12.80;5.67;;;;;;;1.73;100.00;101124.06;5040297;28;20195;-74
2022/11/06 06:24:53;;;;;;;6.97;4.83;;;;;;;1.81;100.00;101130.19;5046612;28;20199;-74
2022/11/06 06:27:20;;;;;;;56.93;25.13;;;;;;;1.75;100.00;101130.94;5045897;28;20203;-74
2022/11/06 06:29:48;;;;;;;31.30;14.03;;;;;;;1.71;100.00;101131.72;5042245;28;20208;-74
2022/11/06 06:32:14;;;;;;;15.97;9.50;;;;;;;1.69;100.00;101133.41;5045742;28;20272;-74
2022/11/06 06:34:41;;;;;;;12.33;6.77;;;;;;;1.76;100.00;101139.50;5048099;28;20285;-74
2022/11/06 06:37:08;;;;;;;13.87;7.60;;;;;;;1.75;100.00;101140.38;5048782;28;20269;-74
2022/11/06 06:39:35;;;;;;;11.47;7.60;;;;;;;1.75;100.00;101135.22;5048194;28;20687;-74
2022/11/06 06:42:02;;;;;;;10.40;7.00;;;;;;;1.76;100.00;101137.81;5029980;28;20237;-74
2022/11/06 06:44:30;;;;;;;9.63;7.97;;;;;;;1.80;100.00;101142.19;5050021;28;20655;-74
2022/11/06 06:46:57;;;;;;;12.43;9.43;;;;;;;1.79;100.00;101144.72;5049809;28;20207;-74
2022/11/06 06:49:23;;;;;;;11.03;7.97;;;;;;;1.87;100.00;101145.72;5047851;28;20204;-74
2022/11/06 06:51:50;;;;;;;12.57;7.37;;;;;;;1.90;100.00;101158.66;5050886;28;20215;-74
2022/11/06 06:54:17;;;;;;;10.03;6.73;;;;;;;1.98;100.00;101159.63;5045422;28;20306;-75
2022/11/06 06:56:43;;;;;;;9.57;6.03;;;;;;;1.95;100.00;101167.28;5049682;28;20281;-74
2022/11/06 06:59:10;;;;;;;10.00;5.40;;;;;;;1.98;100.00;101171.63;5030716;28;20226;-74
2022/11/06 07:01:37;;;;;;;21.60;6.17;;;;;;;1.99;100.00;101171.66;5049412;28;20237;-74
2022/11/06 07:04:06;;;;;;;12.73;6.17;;;;;;;2.02;100.00;101170.84;5049593;28;20191;-74
2022/11/06 07:06:32;;;;;;;7.90;5.23;;;;;;;2.04;100.00;101172.63;5045009;28;20210;-75
2022/11/06 07:08:59;;;;;;;9.37;5.43;;;;;;;2.15;100.00;101170.22;5043557;28;20204;-73
2022/11/06 07:11:26;;;;;;;9.43;5.93;;;;;;;2.21;100.00;101167.75;5044205;28;20219;-73
2022/11/06 07:13:52;;;;;;;12.93;5.67;;;;;;;2.23;100.00;101167.78;5029831;28;20560;-73
2022/11/06 07:16:20;;;;;;;16.03;9.57;;;;;;;2.22;100.00;101166.06;5049156;28;20467;-74
2022/11/06 07:18:48;;;;;;;124.93;61.03;;;;;;;2.22;100.00;101164.34;5045350;28;20367;-75
2022/11/06 07:21:14;;;;;;;94.67;47.97;;;;;;;2.29;100.00;101170.47;5030081;28;20576;-75
2022/11/06 07:23:41;;;;;;;66.17;44.80;;;;;;;2.27;100.00;101169.56;5048531;28;20585;-74
2022/11/06 07:26:08;;;;;;;22.53;15.57;;;;;;;2.27;100.00;101165.28;5045902;28;20199;-74
2022/11/06 07:28:34;;;;;;;19.13;13.20;;;;;;;2.33;100.00;101168.81;5047944;28;20191;-73
2022/11/06 07:31:03;;;;;;;14.33;10.63;;;;;;;2.39;100.00;101162.06;5047844;28;20219;-74
2022/11/06 07:33:32;;;;;;;24.23;14.27;;;;;;;2.49;100.00;101165.63;5042016;28;20195;-73
2022/11/06 07:36:05;;;;;;;21.80;14.50;;;;;;;2.52;100.00;101159.69;5045753;28;20211;-73
2022/11/06 07:38:34;;;;;;;13.23;8.33;;;;;;;2.58;100.00;101157.19;5042609;28;20200;-74
2022/11/06 07:41:02;;;;;;;9.10;6.07;;;;;;;2.67;100.00;101159.03;5044944;28;20280;-74
2022/11/06 07:43:29;;;;;;;15.03;7.33;;;;;;;2.77;100.00;101164.31;5041879;28;20280;-74
2022/11/06 07:45:58;;;;;;;14.10;8.60;;;;;;;2.90;100.00;101164.50;5045781;28;20207;-74
2022/11/06 07:48:25;;;;;;;22.70;10.63;;;;;;;2.94;100.00;101168.88;5047476;28;20207;-74
2022/11/06 07:50:51;;;;;;;16.57;10.23;;;;;;;3.00;100.00;101168.94;5049324;28;20298;-74
2022/11/06 07:53:19;;;;;;;18.70;11.37;;;;;;;3.07;100.00;101172.47;5047061;28;20210;-74
2022/11/06 07:55:48;;;;;;;18.27;10.93;;;;;;;3.17;100.00;101164.03;5047114;28;20676;-75
2022/11/06 07:58:15;;;;;;;18.67;8.23;;;;;;;3.22;100.00;101159.78;5024805;28;20208;-76
2022/11/06 08:00:46;;;;;;;11.97;6.47;;;;;;;3.29;100.00;101160.72;5047289;28;20277;-74
2022/11/06 08:03:12;;;;;;;12.13;6.50;;;;;;;3.39;100.00;101154.81;5027103;28;20217;-75
2022/11/06 08:05:39;;;;;;;14.57;6.27;;;;;;;3.45;100.00;101165.22;5046326;28;20192;-74
2022/11/06 08:08:05;;;;;;;13.47;6.30;;;;;;;3.54;100.00;101157.59;5044020;28;20226;-74
2022/11/06 08:10:33;;;;;;;21.00;9.10;;;;;;;3.63;100.00;101158.56;5044351;28;20226;-75
2022/11/06 08:13:00;;;;;;;15.67;8.13;;;;;;;3.70;100.00;101160.34;5045001;28;20207;-74
2022/11/06 08:15:26;;;;;;;11.67;6.17;;;;;;;3.79;100.00;101152.69;5040624;28;20561;-74
2022/11/06 08:17:53;;;;;;;16.23;7.50;;;;;;;3.88;100.00;101155.34;5046301;28;20249;-74
2022/11/06 08:20:19;;;;;;;15.83;6.90;;;;;;;3.96;100.00;101163.19;5046058;28;20725;-74
2022/11/06 08:22:45;;;;;;;26.33;12.30;;;;;;;4.03;100.00;101156.34;5042682;28;20196;-74
2022/11/06 08:25:12;;;;;;;18.23;8.93;;;;;;;4.07;100.00;101160.72;5028727;28;20204;-74
2022/11/06 08:27:39;;;;;;;17.93;8.27;;;;;;;4.11;100.00;101152.13;5028663;28;20208;-75
2022/11/06 08:30:07;;;;;;;20.37;8.37;;;;;;;4.19;100.00;101153.06;5045620;28;20239;-74
2022/11/06 08:32:34;;;;;;;19.07;8.43;;;;;;;4.27;100.00;101156.56;5046563;28;20206;-75
2022/11/06 08:35:00;;;;;;;13.20;7.50;;;;;;;4.34;100.00;101144.56;5043628;28;20235;-73
2022/11/06 08:37:26;;;;;;;17.03;8.50;;;;;;;4.41;100.00;101145.50;5044923;28;20192;-74
2022/11/06 08:39:53;;;;;;;19.73;9.13;;;;;;;4.50;100.00;101141.28;5046319;28;20209;-73
2022/11/06 08:42:19;;;;;;;17.17;7.50;;;;;;;4.54;100.00;101143.00;5044033;28;20197;-72
2022/11/06 08:44:47;;;;;;;20.07;6.03;;;;;;;4.57;100.00;101139.56;5045419;28;20192;-75
2022/11/06 08:47:13;;;;;;;12.83;6.30;;;;;;;4.65;100.00;101131.91;5041531;28;20196;-74
2022/11/06 08:49:40;;;;;;;14.43;6.03;;;;;;;4.72;100.00;101129.34;5045827;28;20273;-73
2022/11/06 08:52:06;;;;;;;14.80;5.77;;;;;;;4.83;100.00;101123.38;5045758;28;20204;-75
2022/11/06 08:54:32;;;;;;;13.90;5.70;;;;;;;4.83;100.00;101124.22;5045568;28;20207;-74
2022/11/06 08:56:59;;;;;;;9.57;5.50;;;;;;;4.88;100.00;101125.13;5043371;28;20203;-74
2022/11/06 08:59:25;;;;;;;9.83;5.17;;;;;;;4.96;100.00;101116.53;5037760;28;20202;-73
2022/11/06 09:01:55;;;;;;;9.07;5.37;;;;;;;4.95;100.00;101120.00;5016498;22;20432;-74
2022/11/06 09:04:21;;;;;;;9.13;5.07;;;;;;;4.99;100.00;101114.84;4983538;28;20295;-74
2022/11/06 09:06:47;;;;;;;14.50;5.33;;;;;;;5.03;100.00;101111.44;4966284;28;20698;-74
2022/11/06 09:09:14;;;;;;;13.50;4.83;;;;;;;5.09;100.00;101108.84;4979650;28;20205;-74
2022/11/06 09:11:40;;;;;;;11.23;5.00;;;;;;;5.13;100.00;101108.00;4974755;28;20287;-74
2022/11/06 09:14:06;;;;;;;16.17;6.27;;;;;;;5.19;100.00;101107.19;4980035;28;20677;-74
2022/11/06 09:16:33;;;;;;;10.40;5.23;;;;;;;5.27;100.00;101102.03;5029810;23;20583;-73
2022/11/06 09:19:00;;;;;;;8.70;4.70;;;;;;;5.32;100.00;101105.50;5052326;28;21016;-73
2022/11/06 09:21:27;;;;;;;13.90;5.10;;;;;;;5.38;100.00;101108.13;5046772;28;20209;-74
2022/11/06 09:23:53;;;;;;;13.60;5.00;;;;;;;5.46;100.00;101111.56;5049155;28;20564;-74
2022/11/06 09:26:19;;;;;;;12.60;5.57;;;;;;;5.55;100.00;101107.28;5041778;28;20276;-73
2022/11/06 09:28:46;;;;;;;15.13;7.63;;;;;;;5.65;100.00;101096.97;5020161;28;20591;-74
2022/11/06 09:31:12;;;;;;;21.57;9.53;;;;;;;5.76;100.00;101096.13;5037847;28;20595;-74
2022/11/06 09:33:39;;;;;;;13.17;6.33;;;;;;;5.77;100.00;101092.66;5032177;28;20207;-74
2022/11/06 09:36:07;;;;;;;11.43;6.13;;;;;;;5.83;100.00;101090.94;5035651;28;20258;-74
2022/11/06 09:38:34;;;;;;;16.93;5.60;;;;;;;5.89;100.00;101090.06;5036527;28;20628;-74
2022/11/06 09:41:02;;;;;;;9.97;5.30;;;;;;;5.97;100.00;101087.53;5028679;28;20211;-74
2022/11/06 09:43:39;;;;;;;14.90;5.23;;;;;;;6.03;100.00;101079.75;5030773;28;20675;-74
2022/11/06 09:46:18;;;;;;;7.27;4.87;;;;;;;6.14;100.00;101080.63;5033247;28;20218;-74
2022/11/06 09:48:48;;;;;;;11.17;5.60;;;;;;;6.22;100.00;101072.84;5036851;28;20683;-74
2022/11/06 09:51:23;;;;;;;7.90;4.40;;;;;;;6.28;100.00;101077.16;5034895;28;20199;-73
2022/11/06 09:53:56;;;;;;;8.77;5.27;;;;;;;6.37;100.00;101070.25;5016780;28;20194;-74
2022/11/06 09:56:34;;;;;;;12.00;5.50;;;;;;;6.45;100.00;101062.44;5035388;28;20734;-74
2022/11/06 09:59:04;;;;;;;15.00;5.90;;;;;;;6.51;100.00;101067.63;5037367;28;20214;-74
2022/11/06 10:01:39;;;;;;;9.20;4.80;;;;;;;6.65;100.00;101057.22;5037610;28;20199;-74
2022/11/06 10:04:05;;;;;;;9.00;4.23;;;;;;;6.71;100.00;101064.13;5040411;28;20194;-74
2022/11/06 10:06:33;;;;;;;9.33;5.40;;;;;;;6.76;100.00;101064.97;5031724;28;20667;-74
2022/11/06 10:09:01;;;;;;;9.77;4.57;;;;;;;6.84;100.00;101063.19;5033519;28;20199;-72
2022/11/06 10:11:43;;;;;;;8.07;4.70;;;;;;;6.89;100.00;101070.97;5038275;28;20536;-74
2022/11/06 10:14:25;;;;;;;8.17;4.67;;;;;;;6.92;100.00;101065.78;5045075;28;20202;-73
2022/11/06 10:16:59;;;;;;;8.40;4.33;;;;;;;6.97;100.00;101057.09;5041330;28;20233;-72
2022/11/06 10:19:38;;;;;;;6.90;4.57;;;;;;;7.05;100.00;101051.00;5026145;28;20199;-74
2022/11/06 10:22:13;;;;;;;6.60;4.23;;;;;;;7.11;100.00;101053.59;5032895;28;20466;-74
2022/11/06 10:24:45;;;;;;;6.83;4.43;;;;;;;7.19;100.00;101054.41;5036388;28;20738;-74
2022/11/06 10:27:16;;;;;;;8.53;4.57;;;;;;;7.25;100.00;101059.56;5034055;28;20219;-74
2022/11/06 10:30:08;;;;;;;8.23;4.43;;;;;;;7.35;100.00;101061.25;5045160;28;20215;-74
2022/11/06 10:32:48;;;;;;;7.50;4.80;;;;;;;7.34;100.00;101056.91;5034052;28;20568;-75
2022/11/06 10:35:20;;;;;;;9.17;4.77;;;;;;;7.36;100.00;101041.34;5038607;28;20214;-74
2022/11/06 10:37:52;;;;;;;10.37;4.93;;;;;;;7.42;100.00;101036.09;5025194;28;20200;-73
2022/11/06 10:40:24;;;;;;;11.37;5.23;;;;;;;7.50;100.00;101039.50;5035135;28;20203;-74
2022/11/06 10:42:56;;;;;;;12.03;4.93;;;;;;;7.55;100.00;101034.31;5037665;28;20210;-74
2022/11/06 10:45:24;;;;;;;9.70;5.10;;;;;;;7.59;100.00;101034.25;5038609;28;20282;-75
2022/11/06 10:47:54;;;;;;;9.23;4.80;;;;;;;7.66;100.00;101037.66;5042159;28;20199;-75
2022/11/06 10:50:25;;;;;;;9.53;4.90;;;;;;;7.73;100.00;101028.97;5038707;28;20983;-74
2022/11/06 10:53:01;;;;;;;12.47;5.23;;;;;;;7.80;100.00;101027.19;5041515;28;20204;-74
2022/11/06 10:55:48;;;;;;;8.97;4.40;;;;;;;7.89;100.00;101023.66;5040666;28;20223;-73
2022/11/06 10:58:16;;;;;;;11.80;4.20;;;;;;;7.90;100.00;101020.19;5039647;28;20200;-75
2022/11/06 11:00:43;;;;;;;8.73;4.60;;;;;;;7.88;100.00;101019.31;5038538;28;20195;-74
2022/11/06 11:03:18;;;;;;;11.83;4.47;;;;;;;7.89;100.00;101014.13;5037483;28;20692;-74
2022/11/06 11:05:45;;;;;;;9.50;4.83;;;;;;;7.95;100.00;101016.66;5035385;28;20215;-74
2022/11/06 11:08:34;;;;;;;14.20;6.00;;;;;;;8.02;100.00;101011.41;5034030;28;20195;-72
2022/11/06 11:11:02;;;;;;;7.37;4.67;;;;;;;8.10;100.00;101010.47;5021521;28;20210;-74
2022/11/06 11:13:29;;;;;;;9.30;4.50;;;;;;;8.19;100.00;101016.44;5037226;28;20235;-73
2022/11/06 11:15:55;;;;;;;11.90;5.20;;;;;;;8.18;100.00;101007.81;5025893;28;20747;-73
2022/11/06 11:18:29;;;;;;;8.73;5.20;;;;;;;8.25;100.00;101005.97;5021499;28;20212;-74
2022/11/06 11:21:06;;;;;;;8.53;4.20;;;;;;;8.25;100.00;100996.47;5032414;28;20542;-74
2022/11/06 11:23:33;;;;;;;9.57;4.27;;;;;;;8.30;100.00;100988.59;5026720;28;20560;-74
2022/11/06 11:26:18;;;;;;;9.93;4.70;;;;;;;8.35;100.00;100992.03;5038826;28;20717;-73
2022/11/06 11:28:51;;;;;;;8.07;4.93;;;;;;;8.40;100.00;100981.59;5031659;28;20208;-74
2022/11/06 11:31:19;;;;;;;10.73;5.07;;;;;;;8.43;100.00;100973.78;5030411;28;20208;-74
2022/11/06 11:33:51;;;;;;;10.70;5.20;;;;;;;8.48;100.00;100967.66;5037009;28;20193;-74
2022/11/06 11:36:17;;;;;;;10.87;4.90;;;;;;;8.54;100.00;100977.13;5021377;28;20796;-74
2022/11/06 11:38:45;;;;;;;14.87;4.93;;;;;;;8.57;100.00;100974.50;5035956;28;20198;-74
2022/11/06 11:41:14;;;;;;;12.93;5.53;;;;;;;8.64;100.00;100973.53;5032598;28;20689;-74
2022/11/06 11:43:41;;;;;;;12.43;5.40;;;;;;;8.62;100.00;100964.00;5033276;28;20700;-74